sensor_id;sensor_type;location;lat;lon;timestamp;temperature;humidity
18934;DHT22;9599;53.706;10.384;2023-04-19T00:01:43;5.80;99.90
18934;DHT22;9599;53.706;10.384;2023-04-19T00:04:11;5.80;99.90
18934;DHT22;9599;53.706;10.384;2023-04-19T00:06:41;5.90;99.90
18934;DHT22;9599;53.706;10.384;2023-04-19T00:09:09;5.90;99.90
18934;DHT22;9599;53.706;10.384;2023-04-19T00:11:38;5.90;99.90
18934;DHT22;9599;53.706;10.384;2023-04-19T00:14:06;6.00;99.90
18934;DHT22;9599;53.706;10.384;2023-04-19T00:16:34;5.90;99.90
18934;DHT22;9599;53.706;10.384;2023-04-19T00:19:02;6.00;99.90
18934;DHT22;9599;53.706;10.384;2023-04-19T00:21:30;6.00;99.90
18934;DHT22;9599;53.706;10.384;2023-04-19T00:23:58;5.90;99.90
18934;DHT22;9599;53.706;10.384;2023-04-19T00:26:26;6.00;99.90
18934;DHT22;9599;53.706;10.384;2023-04-19T00:28:56;6.00;99.90
18934;DHT22;9599;53.706;10.384;2023-04-19T00:31:24;6.00;99.90
18934;DHT22;9599;53.706;10.384;2023-04-19T00:33:52;6.00;99.90
18934;DHT22;9599;53.706;10.384;2023-04-19T00:36:20;5.90;99.90
18934;DHT22;9599;53.706;10.384;2023-04-19T00:38:48;5.90;99.90
18934;DHT22;9599;53.706;10.384;2023-04-19T00:41:16;6.00;99.90
18934;DHT22;9599;53.706;10.384;2023-04-19T00:43:43;5.90;99.90
18934;DHT22;9599;53.706;10.384;2023-04-19T00:46:13;6.00;99.90
18934;DHT22;9599;53.706;10.384;2023-04-19T00:48:41;6.00;99.90
18934;DHT22;9599;53.706;10.384;2023-04-19T00:51:11;5.90;99.90
18934;DHT22;9599;53.706;10.384;2023-04-19T00:53:39;5.90;99.90
18934;DHT22;9599;53.706;10.384;2023-04-19T00:56:08;5.80;99.90
18934;DHT22;9599;53.706;10.384;2023-04-19T00:58:37;5.80;99.90
18934;DHT22;9599;53.706;10.384;2023-04-19T01:01:05;5.80;99.90
18934;DHT22;9599;53.706;10.384;2023-04-19T01:03:35;5.80;99.90
18934;DHT22;9599;53.706;10.384;2023-04-19T01:06:03;5.70;99.90
18934;DHT22;9599;53.706;10.384;2023-04-19T01:08:31;5.70;99.90
18934;DHT22;9599;53.706;10.384;2023-04-19T01:10:59;5.70;99.90
18934;DHT22;9599;53.706;10.384;2023-04-19T01:13:27;5.60;99.90
18934;DHT22;9599;53.706;10.384;2023-04-19T01:15:56;5.60;99.90
18934;DHT22;9599;53.706;10.384;2023-04-19T01:18:24;5.50;99.90
18934;DHT22;9599;53.706;10.384;2023-04-19T01:20:59;5.50;99.90
18934;DHT22;9599;53.706;10.384;2023-04-19T01:23:28;5.50;99.90
18934;DHT22;9599;53.706;10.384;2023-04-19T01:25:56;5.40;99.90
18934;DHT22;9599;53.706;10.384;2023-04-19T01:28:24;5.40;99.90
18934;DHT22;9599;53.706;10.384;2023-04-19T01:30:52;5.40;99.90
18934;DHT22;9599;53.706;10.384;2023-04-19T01:33:21;5.40;99.90
18934;DHT22;9599;53.706;10.384;2023-04-19T01:35:50;5.40;99.90
18934;DHT22;9599;53.706;10.384;2023-04-19T01:38:18;5.30;99.90
18934;DHT22;9599;53.706;10.384;2023-04-19T01:40:47;5.30;99.90
18934;DHT22;9599;53.706;10.384;2023-04-19T01:43:16;5.30;99.90
18934;DHT22;9599;53.706;10.384;2023-04-19T01:45:44;5.30;99.90
18934;DHT22;9599;53.706;10.384;2023-04-19T01:48:12;5.30;99.90
18934;DHT22;9599;53.706;10.384;2023-04-19T01:50:40;5.30;99.90
18934;DHT22;9599;53.706;10.384;2023-04-19T01:53:09;5.20;99.90
18934;DHT22;9599;53.706;10.384;2023-04-19T01:55:37;5.20;99.90
18934;DHT22;9599;53.706;10.384;2023-04-19T01:58:07;5.20;99.90
18934;DHT22;9599;53.706;10.384;2023-04-19T02:00:35;5.20;99.90
18934;DHT22;9599;53.706;10.384;2023-04-19T02:03:03;5.20;99.90
18934;DHT22;9599;53.706;10.384;2023-04-19T02:05:31;5.20;99.90
18934;DHT22;9599;53.706;10.384;2023-04-19T02:08:00;5.10;99.90
18934;DHT22;9599;53.706;10.384;2023-04-19T02:10:29;5.10;99.90
18934;DHT22;9599;53.706;10.384;2023-04-19T02:12:57;5.00;99.90
18934;DHT22;9599;53.706;10.384;2023-04-19T02:15:27;4.90;99.90
18934;DHT22;9599;53.706;10.384;2023-04-19T02:17:55;4.90;99.90
18934;DHT22;9599;53.706;10.384;2023-04-19T02:20:25;5.00;99.90
18934;DHT22;9599;53.706;10.384;2023-04-19T02:22:53;5.00;99.90
18934;DHT22;9599;53.706;10.384;2023-04-19T02:25:22;5.00;99.90
18934;DHT22;9599;53.706;10.384;2023-04-19T02:27:50;5.00;99.90
18934;DHT22;9599;53.706;10.384;2023-04-19T02:30:19;5.00;99.90
18934;DHT22;9599;53.706;10.384;2023-04-19T02:32:48;5.00;99.90
18934;DHT22;9599;53.706;10.384;2023-04-19T02:35:16;5.00;99.90
18934;DHT22;9599;53.706;10.384;2023-04-19T02:37:44;5.00;99.90
18934;DHT22;9599;53.706;10.384;2023-04-19T02:40:12;5.00;99.90
18934;DHT22;9599;53.706;10.384;2023-04-19T02:42:40;5.00;99.90
18934;DHT22;9599;53.706;10.384;2023-04-19T02:45:09;5.00;99.90
18934;DHT22;9599;53.706;10.384;2023-04-19T02:47:36;5.00;99.90
18934;DHT22;9599;53.706;10.384;2023-04-19T02:50:07;5.10;99.90
18934;DHT22;9599;53.706;10.384;2023-04-19T02:52:41;5.00;99.90
18934;DHT22;9599;53.706;10.384;2023-04-19T02:55:10;5.10;99.90
18934;DHT22;9599;53.706;10.384;2023-04-19T02:57:38;5.10;99.90
18934;DHT22;9599;53.706;10.384;2023-04-19T03:00:09;5.10;99.90
18934;DHT22;9599;53.706;10.384;2023-04-19T03:02:41;5.10;99.90
18934;DHT22;9599;53.706;10.384;2023-04-19T03:05:12;5.00;99.90
18934;DHT22;9599;53.706;10.384;2023-04-19T03:07:40;5.00;99.90
18934;DHT22;9599;53.706;10.384;2023-04-19T03:10:10;5.00;99.90
18934;DHT22;9599;53.706;10.384;2023-04-19T03:12:38;4.90;99.90
18934;DHT22;9599;53.706;10.384;2023-04-19T03:15:08;5.00;99.90
18934;DHT22;9599;53.706;10.384;2023-04-19T03:17:36;5.00;99.90
18934;DHT22;9599;53.706;10.384;2023-04-19T03:20:06;4.90;99.90
18934;DHT22;9599;53.706;10.384;2023-04-19T03:22:39;4.90;99.90
18934;DHT22;9599;53.706;10.384;2023-04-19T03:25:07;4.90;99.90
18934;DHT22;9599;53.706;10.384;2023-04-19T03:27:41;4.90;99.90
18934;DHT22;9599;53.706;10.384;2023-04-19T03:30:13;4.90;99.90
18934;DHT22;9599;53.706;10.384;2023-04-19T03:32:45;4.80;99.90
18934;DHT22;9599;53.706;10.384;2023-04-19T03:35:13;4.90;99.90
18934;DHT22;9599;53.706;10.384;2023-04-19T03:37:44;4.80;99.90
18934;DHT22;9599;53.706;10.384;2023-04-19T03:40:12;4.90;99.90
18934;DHT22;9599;53.706;10.384;2023-04-19T03:42:40;4.80;99.90
18934;DHT22;9599;53.706;10.384;2023-04-19T03:45:18;4.80;99.90
18934;DHT22;9599;53.706;10.384;2023-04-19T03:47:46;4.80;99.90
18934;DHT22;9599;53.706;10.384;2023-04-19T03:50:15;4.80;99.90
18934;DHT22;9599;53.706;10.384;2023-04-19T03:52:48;4.80;99.90
18934;DHT22;9599;53.706;10.384;2023-04-19T03:55:16;4.80;99.90
18934;DHT22;9599;53.706;10.384;2023-04-19T03:57:44;4.90;99.90
18934;DHT22;9599;53.706;10.384;2023-04-19T04:00:18;4.90;99.90
18934;DHT22;9599;53.706;10.384;2023-04-19T04:02:54;4.90;99.90
18934;DHT22;9599;53.706;10.384;2023-04-19T04:05:22;4.80;99.90
18934;DHT22;9599;53.706;10.384;2023-04-19T04:07:52;4.80;99.90
18934;DHT22;9599;53.706;10.384;2023-04-19T04:10:21;4.80;99.90
18934;DHT22;9599;53.706;10.384;2023-04-19T04:12:50;4.90;99.90
18934;DHT22;9599;53.706;10.384;2023-04-19T04:15:24;4.90;99.90
18934;DHT22;9599;53.706;10.384;2023-04-19T04:17:53;4.90;99.90
18934;DHT22;9599;53.706;10.384;2023-04-19T04:20:21;4.90;99.90
18934;DHT22;9599;53.706;10.384;2023-04-19T04:22:55;4.90;99.90
18934;DHT22;9599;53.706;10.384;2023-04-19T04:25:23;5.00;99.90
18934;DHT22;9599;53.706;10.384;2023-04-19T04:27:52;5.10;99.90
18934;DHT22;9599;53.706;10.384;2023-04-19T04:30:23;5.10;99.90
18934;DHT22;9599;53.706;10.384;2023-04-19T04:32:56;5.20;99.90
18934;DHT22;9599;53.706;10.384;2023-04-19T04:35:25;5.20;99.90
18934;DHT22;9599;53.706;10.384;2023-04-19T04:38:06;5.20;99.90
18934;DHT22;9599;53.706;10.384;2023-04-19T04:40:49;5.20;99.90
18934;DHT22;9599;53.706;10.384;2023-04-19T04:43:19;5.30;99.90
18934;DHT22;9599;53.706;10.384;2023-04-19T04:45:48;5.30;99.90
18934;DHT22;9599;53.706;10.384;2023-04-19T04:48:17;5.40;99.90
18934;DHT22;9599;53.706;10.384;2023-04-19T04:50:45;5.30;99.90
18934;DHT22;9599;53.706;10.384;2023-04-19T04:53:14;5.40;99.90
18934;DHT22;9599;53.706;10.384;2023-04-19T04:55:44;5.40;99.90
18934;DHT22;9599;53.706;10.384;2023-04-19T04:58:13;5.50;99.90
18934;DHT22;9599;53.706;10.384;2023-04-19T05:00:51;5.50;99.90
18934;DHT22;9599;53.706;10.384;2023-04-19T05:03:19;5.60;99.90
18934;DHT22;9599;53.706;10.384;2023-04-19T05:05:53;5.50;99.90
18934;DHT22;9599;53.706;10.384;2023-04-19T05:08:25;5.50;99.90
18934;DHT22;9599;53.706;10.384;2023-04-19T05:10:58;5.60;99.90
18934;DHT22;9599;53.706;10.384;2023-04-19T05:13:30;5.70;99.90
18934;DHT22;9599;53.706;10.384;2023-04-19T05:15:58;5.70;99.90
18934;DHT22;9599;53.706;10.384;2023-04-19T05:18:27;5.80;99.90
18934;DHT22;9599;53.706;10.384;2023-04-19T05:20:55;5.80;99.90
18934;DHT22;9599;53.706;10.384;2023-04-19T05:23:29;5.90;99.90
18934;DHT22;9599;53.706;10.384;2023-04-19T05:25:57;6.00;99.90
18934;DHT22;9599;53.706;10.384;2023-04-19T05:28:26;6.00;99.90
18934;DHT22;9599;53.706;10.384;2023-04-19T05:31:02;6.10;99.90
18934;DHT22;9599;53.706;10.384;2023-04-19T05:33:34;6.10;99.90
18934;DHT22;9599;53.706;10.384;2023-04-19T05:36:03;6.20;99.90
18934;DHT22;9599;53.706;10.384;2023-04-19T05:38:32;6.30;99.90
18934;DHT22;9599;53.706;10.384;2023-04-19T05:41:01;6.40;99.90
18934;DHT22;9599;53.706;10.384;2023-04-19T05:43:29;6.50;99.90
18934;DHT22;9599;53.706;10.384;2023-04-19T05:45:57;6.70;99.90
18934;DHT22;9599;53.706;10.384;2023-04-19T05:48:25;6.80;99.90
18934;DHT22;9599;53.706;10.384;2023-04-19T05:51:06;7.00;99.90
18934;DHT22;9599;53.706;10.384;2023-04-19T05:53:53;7.10;99.90
18934;DHT22;9599;53.706;10.384;2023-04-19T05:56:24;7.20;99.90
18934;DHT22;9599;53.706;10.384;2023-04-19T05:58:52;7.30;99.90
18934;DHT22;9599;53.706;10.384;2023-04-19T06:01:21;7.50;99.90
18934;DHT22;9599;53.706;10.384;2023-04-19T06:03:50;7.60;99.90
18934;DHT22;9599;53.706;10.384;2023-04-19T06:06:20;7.60;99.90
18934;DHT22;9599;53.706;10.384;2023-04-19T06:08:49;7.70;99.90
18934;DHT22;9599;53.706;10.384;2023-04-19T06:11:21;7.80;99.90
18934;DHT22;9599;53.706;10.384;2023-04-19T06:14:01;8.00;99.90
18934;DHT22;9599;53.706;10.384;2023-04-19T06:16:29;8.20;99.90
18934;DHT22;9599;53.706;10.384;2023-04-19T06:18:57;8.20;99.90
18934;DHT22;9599;53.706;10.384;2023-04-19T06:21:24;8.30;99.90
18934;DHT22;9599;53.706;10.384;2023-04-19T06:23:52;8.50;99.90
18934;DHT22;9599;53.706;10.384;2023-04-19T06:26:22;8.60;99.90
18934;DHT22;9599;53.706;10.384;2023-04-19T06:28:49;8.80;99.90
18934;DHT22;9599;53.706;10.384;2023-04-19T06:31:17;8.90;99.90
18934;DHT22;9599;53.706;10.384;2023-04-19T06:33:45;9.00;99.90
18934;DHT22;9599;53.706;10.384;2023-04-19T06:36:13;9.20;99.90
18934;DHT22;9599;53.706;10.384;2023-04-19T06:38:41;9.40;99.90
18934;DHT22;9599;53.706;10.384;2023-04-19T06:41:10;9.40;99.90
18934;DHT22;9599;53.706;10.384;2023-04-19T06:43:39;9.60;99.90
18934;DHT22;9599;53.706;10.384;2023-04-19T06:46:08;9.70;99.90
18934;DHT22;9599;53.706;10.384;2023-04-19T06:48:37;9.90;99.90
18934;DHT22;9599;53.706;10.384;2023-04-19T06:51:05;10.10;99.90
18934;DHT22;9599;53.706;10.384;2023-04-19T06:53:33;10.10;99.90
18934;DHT22;9599;53.706;10.384;2023-04-19T06:56:03;10.20;99.90
18934;DHT22;9599;53.706;10.384;2023-04-19T06:58:31;10.20;99.90
18934;DHT22;9599;53.706;10.384;2023-04-19T07:01:03;10.50;99.90
18934;DHT22;9599;53.706;10.384;2023-04-19T07:03:31;10.30;99.90
18934;DHT22;9599;53.706;10.384;2023-04-19T07:05:59;10.40;99.90
18934;DHT22;9599;53.706;10.384;2023-04-19T07:08:28;10.50;99.90
18934;DHT22;9599;53.706;10.384;2023-04-19T07:11:14;10.60;99.90
18934;DHT22;9599;53.706;10.384;2023-04-19T07:13:42;10.70;99.90
18934;DHT22;9599;53.706;10.384;2023-04-19T07:16:11;10.90;99.90
18934;DHT22;9599;53.706;10.384;2023-04-19T07:18:40;10.90;99.90
18934;DHT22;9599;53.706;10.384;2023-04-19T07:21:09;10.90;99.90
18934;DHT22;9599;53.706;10.384;2023-04-19T07:23:37;11.10;99.90
18934;DHT22;9599;53.706;10.384;2023-04-19T07:26:05;11.10;99.90
18934;DHT22;9599;53.706;10.384;2023-04-19T07:28:34;11.30;99.90
18934;DHT22;9599;53.706;10.384;2023-04-19T07:31:02;11.10;99.90
18934;DHT22;9599;53.706;10.384;2023-04-19T07:33:31;11.10;99.90
18934;DHT22;9599;53.706;10.384;2023-04-19T07:35:59;11.20;99.90
18934;DHT22;9599;53.706;10.384;2023-04-19T07:38:27;11.40;99.90
18934;DHT22;9599;53.706;10.384;2023-04-19T07:40:55;11.30;99.90
18934;DHT22;9599;53.706;10.384;2023-04-19T07:43:23;11.40;99.90
18934;DHT22;9599;53.706;10.384;2023-04-19T07:45:51;11.50;99.90
18934;DHT22;9599;53.706;10.384;2023-04-19T07:48:19;11.40;99.90
18934;DHT22;9599;53.706;10.384;2023-04-19T07:50:49;11.60;99.90
18934;DHT22;9599;53.706;10.384;2023-04-19T07:53:17;11.70;99.90
18934;DHT22;9599;53.706;10.384;2023-04-19T07:55:45;11.60;99.90
18934;DHT22;9599;53.706;10.384;2023-04-19T07:58:13;11.80;99.90
18934;DHT22;9599;53.706;10.384;2023-04-19T08:00:41;11.80;99.90
18934;DHT22;9599;53.706;10.384;2023-04-19T08:03:09;11.80;99.90
18934;DHT22;9599;53.706;10.384;2023-04-19T08:05:37;12.00;99.90
18934;DHT22;9599;53.706;10.384;2023-04-19T08:08:06;12.10;99.90
18934;DHT22;9599;53.706;10.384;2023-04-19T08:10:34;12.40;99.90
18934;DHT22;9599;53.706;10.384;2023-04-19T08:13:02;12.30;99.90
18934;DHT22;9599;53.706;10.384;2023-04-19T08:15:32;12.30;99.90
18934;DHT22;9599;53.706;10.384;2023-04-19T08:18:05;12.40;99.90
18934;DHT22;9599;53.706;10.384;2023-04-19T08:20:33;12.50;99.90
18934;DHT22;9599;53.706;10.384;2023-04-19T08:23:02;12.30;99.90
18934;DHT22;9599;53.706;10.384;2023-04-19T08:25:49;12.30;99.90
18934;DHT22;9599;53.706;10.384;2023-04-19T08:28:17;12.30;99.90
18934;DHT22;9599;53.706;10.384;2023-04-19T08:30:45;12.20;99.90
18934;DHT22;9599;53.706;10.384;2023-04-19T08:33:13;12.30;99.90
18934;DHT22;9599;53.706;10.384;2023-04-19T08:35:41;12.30;99.90
18934;DHT22;9599;53.706;10.384;2023-04-19T08:38:11;12.20;99.90
18934;DHT22;9599;53.706;10.384;2023-04-19T08:40:42;12.20;99.90
18934;DHT22;9599;53.706;10.384;2023-04-19T08:43:15;12.30;99.90
18934;DHT22;9599;53.706;10.384;2023-04-19T08:45:45;12.40;99.90
18934;DHT22;9599;53.706;10.384;2023-04-19T08:48:14;12.40;99.90
18934;DHT22;9599;53.706;10.384;2023-04-19T08:50:43;12.60;99.90
18934;DHT22;9599;53.706;10.384;2023-04-19T08:53:32;12.60;99.90
18934;DHT22;9599;53.706;10.384;2023-04-19T08:56:01;12.60;99.90
18934;DHT22;9599;53.706;10.384;2023-04-19T08:58:51;12.80;99.90
18934;DHT22;9599;53.706;10.384;2023-04-19T09:01:37;12.80;99.90
18934;DHT22;9599;53.706;10.384;2023-04-19T09:04:06;12.80;99.90
18934;DHT22;9599;53.706;10.384;2023-04-19T09:06:38;12.70;99.90
18934;DHT22;9599;53.706;10.384;2023-04-19T09:09:15;12.70;99.90
18934;DHT22;9599;53.706;10.384;2023-04-19T09:12:03;12.80;99.90
18934;DHT22;9599;53.706;10.384;2023-04-19T09:14:45;12.80;99.90
18934;DHT22;9599;53.706;10.384;2023-04-19T09:17:16;12.90;99.90
18934;DHT22;9599;53.706;10.384;2023-04-19T09:19:45;12.90;99.90
18934;DHT22;9599;53.706;10.384;2023-04-19T09:22:14;12.90;99.90
18934;DHT22;9599;53.706;10.384;2023-04-19T09:24:42;12.70;99.90
18934;DHT22;9599;53.706;10.384;2023-04-19T09:27:14;12.90;99.90
18934;DHT22;9599;53.706;10.384;2023-04-19T09:29:53;13.10;99.90
18934;DHT22;9599;53.706;10.384;2023-04-19T09:32:21;13.40;99.90
18934;DHT22;9599;53.706;10.384;2023-04-19T09:34:53;13.50;99.90
18934;DHT22;9599;53.706;10.384;2023-04-19T09:37:22;13.70;99.90
18934;DHT22;9599;53.706;10.384;2023-04-19T09:40:20;13.50;99.90
18934;DHT22;9599;53.706;10.384;2023-04-19T09:42:49;13.60;99.90
18934;DHT22;9599;53.706;10.384;2023-04-19T09:45:21;13.60;99.90
18934;DHT22;9599;53.706;10.384;2023-04-19T09:48:02;13.80;99.90
18934;DHT22;9599;53.706;10.384;2023-04-19T09:50:31;13.50;99.90
18934;DHT22;9599;53.706;10.384;2023-04-19T09:53:16;13.50;99.90
18934;DHT22;9599;53.706;10.384;2023-04-19T09:55:45;13.30;99.30
18934;DHT22;9599;53.706;10.384;2023-04-19T09:58:25;13.50;99.90
18934;DHT22;9599;53.706;10.384;2023-04-19T10:01:11;13.70;99.90
18934;DHT22;9599;53.706;10.384;2023-04-19T10:03:43;13.80;95.40
18934;DHT22;9599;53.706;10.384;2023-04-19T10:06:14;13.60;92.80
18934;DHT22;9599;53.706;10.384;2023-04-19T10:09:03;13.50;92.60
18934;DHT22;9599;53.706;10.384;2023-04-19T10:11:32;13.70;95.00
18934;DHT22;9599;53.706;10.384;2023-04-19T10:14:06;13.80;96.30
18934;DHT22;9599;53.706;10.384;2023-04-19T10:16:37;13.90;91.80
18934;DHT22;9599;53.706;10.384;2023-04-19T10:19:07;14.10;87.40
18934;DHT22;9599;53.706;10.384;2023-04-19T10:21:36;13.90;85.30
18934;DHT22;9599;53.706;10.384;2023-04-19T10:24:05;13.70;86.50
18934;DHT22;9599;53.706;10.384;2023-04-19T10:27:08;13.70;87.10
18934;DHT22;9599;53.706;10.384;2023-04-19T10:29:57;13.80;84.70
18934;DHT22;9599;53.706;10.384;2023-04-19T10:32:36;13.70;82.40
18934;DHT22;9599;53.706;10.384;2023-04-19T10:35:08;13.60;82.00
18934;DHT22;9599;53.706;10.384;2023-04-19T10:37:39;13.80;82.10
18934;DHT22;9599;53.706;10.384;2023-04-19T10:40:08;13.60;83.70
18934;DHT22;9599;53.706;10.384;2023-04-19T10:45:54;13.40;80.80
18934;DHT22;9599;53.706;10.384;2023-04-19T10:48:34;13.30;80.60
18934;DHT22;9599;53.706;10.384;2023-04-19T10:51:11;13.40;79.70
18934;DHT22;9599;53.706;10.384;2023-04-19T10:53:45;13.40;80.80
18934;DHT22;9599;53.706;10.384;2023-04-19T10:56:14;13.50;82.60
18934;DHT22;9599;53.706;10.384;2023-04-19T10:59:11;13.50;73.80
18934;DHT22;9599;53.706;10.384;2023-04-19T11:01:41;13.30;82.40
18934;DHT22;9599;53.706;10.384;2023-04-19T11:04:11;13.50;87.30
18934;DHT22;9599;53.706;10.384;2023-04-19T11:06:57;13.80;84.40
18934;DHT22;9599;53.706;10.384;2023-04-19T11:09:29;14.00;82.80
18934;DHT22;9599;53.706;10.384;2023-04-19T11:11:59;13.80;79.20
18934;DHT22;9599;53.706;10.384;2023-04-19T11:14:31;13.70;78.90
18934;DHT22;9599;53.706;10.384;2023-04-19T11:17:03;13.80;83.10
18934;DHT22;9599;53.706;10.384;2023-04-19T11:19:32;13.70;79.50
18934;DHT22;9599;53.706;10.384;2023-04-19T11:22:00;13.70;80.20
18934;DHT22;9599;53.706;10.384;2023-04-19T11:24:28;13.90;78.00
18934;DHT22;9599;53.706;10.384;2023-04-19T11:26:56;13.70;78.60
18934;DHT22;9599;53.706;10.384;2023-04-19T11:29:24;13.80;78.20
18934;DHT22;9599;53.706;10.384;2023-04-19T11:31:54;13.60;78.40
18934;DHT22;9599;53.706;10.384;2023-04-19T11:34:22;13.50;74.70
18934;DHT22;9599;53.706;10.384;2023-04-19T11:36:52;13.40;73.80
18934;DHT22;9599;53.706;10.384;2023-04-19T11:39:20;13.40;76.40
18934;DHT22;9599;53.706;10.384;2023-04-19T11:41:48;13.50;71.30
18934;DHT22;9599;53.706;10.384;2023-04-19T11:44:16;13.20;70.60
18934;DHT22;9599;53.706;10.384;2023-04-19T11:46:59;13.20;77.50
18934;DHT22;9599;53.706;10.384;2023-04-19T11:49:30;13.10;73.90
18934;DHT22;9599;53.706;10.384;2023-04-19T11:52:01;13.20;74.30
18934;DHT22;9599;53.706;10.384;2023-04-19T11:54:32;13.20;76.40
18934;DHT22;9599;53.706;10.384;2023-04-19T11:57:01;13.20;75.10
18934;DHT22;9599;53.706;10.384;2023-04-19T11:59:31;13.20;73.90
18934;DHT22;9599;53.706;10.384;2023-04-19T12:02:09;13.00;70.90
18934;DHT22;9599;53.706;10.384;2023-04-19T12:04:37;13.00;77.30
18934;DHT22;9599;53.706;10.384;2023-04-19T12:07:09;12.90;77.40
18934;DHT22;9599;53.706;10.384;2023-04-19T12:09:38;12.90;78.40
18934;DHT22;9599;53.706;10.384;2023-04-19T12:12:05;12.90;78.70
18934;DHT22;9599;53.706;10.384;2023-04-19T12:14:33;12.70;78.70
18934;DHT22;9599;53.706;10.384;2023-04-19T12:17:09;12.70;79.50
18934;DHT22;9599;53.706;10.384;2023-04-19T12:19:42;12.90;80.30
18934;DHT22;9599;53.706;10.384;2023-04-19T12:22:13;13.00;82.40
18934;DHT22;9599;53.706;10.384;2023-04-19T12:24:41;12.90;84.00
18934;DHT22;9599;53.706;10.384;2023-04-19T12:27:10;13.00;83.60
18934;DHT22;9599;53.706;10.384;2023-04-19T12:29:38;13.00;82.40
18934;DHT22;9599;53.706;10.384;2023-04-19T12:32:06;12.90;83.20
18934;DHT22;9599;53.706;10.384;2023-04-19T12:34:35;12.90;81.90
18934;DHT22;9599;53.706;10.384;2023-04-19T12:37:02;13.00;82.00
18934;DHT22;9599;53.706;10.384;2023-04-19T12:39:32;12.80;80.70
18934;DHT22;9599;53.706;10.384;2023-04-19T12:42:00;12.70;80.30
18934;DHT22;9599;53.706;10.384;2023-04-19T12:44:28;12.70;79.40
18934;DHT22;9599;53.706;10.384;2023-04-19T12:46:56;12.70;81.70
18934;DHT22;9599;53.706;10.384;2023-04-19T12:49:24;12.80;77.90
18934;DHT22;9599;53.706;10.384;2023-04-19T12:51:52;12.60;71.90
18934;DHT22;9599;53.706;10.384;2023-04-19T12:54:23;12.60;75.70
18934;DHT22;9599;53.706;10.384;2023-04-19T12:56:52;12.70;73.40
18934;DHT22;9599;53.706;10.384;2023-04-19T12:59:21;12.60;70.10
18934;DHT22;9599;53.706;10.384;2023-04-19T13:01:49;12.60;74.00
18934;DHT22;9599;53.706;10.384;2023-04-19T13:04:17;12.70;73.80
18934;DHT22;9599;53.706;10.384;2023-04-19T13:06:45;12.70;70.10
18934;DHT22;9599;53.706;10.384;2023-04-19T13:09:13;12.60;70.90
18934;DHT22;9599;53.706;10.384;2023-04-19T13:11:41;12.70;70.70
18934;DHT22;9599;53.706;10.384;2023-04-19T13:14:10;12.60;67.50
18934;DHT22;9599;53.706;10.384;2023-04-19T13:16:38;12.60;73.20
18934;DHT22;9599;53.706;10.384;2023-04-19T13:19:06;12.60;74.00
18934;DHT22;9599;53.706;10.384;2023-04-19T13:21:34;12.60;69.80
18934;DHT22;9599;53.706;10.384;2023-04-19T13:24:02;12.60;70.90
18934;DHT22;9599;53.706;10.384;2023-04-19T13:26:30;12.60;71.40
18934;DHT22;9599;53.706;10.384;2023-04-19T13:29:01;12.60;71.20
18934;DHT22;9599;53.706;10.384;2023-04-19T13:31:30;12.80;72.50
18934;DHT22;9599;53.706;10.384;2023-04-19T13:33:58;12.80;71.70
18934;DHT22;9599;53.706;10.384;2023-04-19T13:36:26;12.80;68.80
18934;DHT22;9599;53.706;10.384;2023-04-19T13:38:54;12.50;66.80
18934;DHT22;9599;53.706;10.384;2023-04-19T13:41:22;12.30;69.40
18934;DHT22;9599;53.706;10.384;2023-04-19T13:43:50;12.40;70.20
18934;DHT22;9599;53.706;10.384;2023-04-19T13:46:18;12.40;69.30
18934;DHT22;9599;53.706;10.384;2023-04-19T13:48:47;12.50;71.80
18934;DHT22;9599;53.706;10.384;2023-04-19T13:51:15;12.50;69.50
18934;DHT22;9599;53.706;10.384;2023-04-19T13:53:45;12.50;70.50
18934;DHT22;9599;53.706;10.384;2023-04-19T13:56:12;12.50;74.50
18934;DHT22;9599;53.706;10.384;2023-04-19T13:58:40;12.60;76.90
18934;DHT22;9599;53.706;10.384;2023-04-19T14:01:08;12.50;69.10
18934;DHT22;9599;53.706;10.384;2023-04-19T14:03:37;12.50;70.40
18934;DHT22;9599;53.706;10.384;2023-04-19T14:06:06;12.40;69.50
18934;DHT22;9599;53.706;10.384;2023-04-19T14:08:34;12.40;66.70
18934;DHT22;9599;53.706;10.384;2023-04-19T14:11:02;12.30;67.40
18934;DHT22;9599;53.706;10.384;2023-04-19T14:13:30;12.40;69.50
18934;DHT22;9599;53.706;10.384;2023-04-19T14:15:58;12.30;69.40
18934;DHT22;9599;53.706;10.384;2023-04-19T14:18:26;12.40;67.80
18934;DHT22;9599;53.706;10.384;2023-04-19T14:20:54;12.30;68.20
18934;DHT22;9599;53.706;10.384;2023-04-19T14:23:23;12.30;66.20
18934;DHT22;9599;53.706;10.384;2023-04-19T14:25:51;12.30;66.80
18934;DHT22;9599;53.706;10.384;2023-04-19T14:28:19;12.20;68.80
18934;DHT22;9599;53.706;10.384;2023-04-19T14:30:47;12.30;65.90
18934;DHT22;9599;53.706;10.384;2023-04-19T14:33:15;12.30;66.90
18934;DHT22;9599;53.706;10.384;2023-04-19T14:35:43;12.20;66.20
18934;DHT22;9599;53.706;10.384;2023-04-19T14:38:11;12.30;68.20
18934;DHT22;9599;53.706;10.384;2023-04-19T14:40:41;12.00;61.80
18934;DHT22;9599;53.706;10.384;2023-04-19T14:43:10;11.90;66.00
18934;DHT22;9599;53.706;10.384;2023-04-19T14:45:42;12.00;63.80
18934;DHT22;9599;53.706;10.384;2023-04-19T14:48:10;12.10;67.70
18934;DHT22;9599;53.706;10.384;2023-04-19T14:50:38;12.10;69.20
18934;DHT22;9599;53.706;10.384;2023-04-19T14:53:05;12.30;66.10
18934;DHT22;9599;53.706;10.384;2023-04-19T14:55:35;12.10;67.60
18934;DHT22;9599;53.706;10.384;2023-04-19T14:58:05;12.20;67.60
18934;DHT22;9599;53.706;10.384;2023-04-19T15:00:33;12.20;67.50
18934;DHT22;9599;53.706;10.384;2023-04-19T15:03:01;12.40;65.50
18934;DHT22;9599;53.706;10.384;2023-04-19T15:05:29;12.30;64.50
18934;DHT22;9599;53.706;10.384;2023-04-19T15:08:00;12.20;61.40
18934;DHT22;9599;53.706;10.384;2023-04-19T15:10:28;12.10;61.50
18934;DHT22;9599;53.706;10.384;2023-04-19T15:12:56;12.20;61.50
18934;DHT22;9599;53.706;10.384;2023-04-19T15:15:25;12.10;58.90
18934;DHT22;9599;53.706;10.384;2023-04-19T15:17:53;12.10;61.10
18934;DHT22;9599;53.706;10.384;2023-04-19T15:20:22;12.20;62.10
18934;DHT22;9599;53.706;10.384;2023-04-19T15:22:51;12.10;58.00
18934;DHT22;9599;53.706;10.384;2023-04-19T15:25:19;12.10;57.70
18934;DHT22;9599;53.706;10.384;2023-04-19T15:27:47;12.10;58.90
18934;DHT22;9599;53.706;10.384;2023-04-19T15:30:15;12.10;60.80
18934;DHT22;9599;53.706;10.384;2023-04-19T15:32:44;12.20;64.80
18934;DHT22;9599;53.706;10.384;2023-04-19T15:35:12;12.30;60.30
18934;DHT22;9599;53.706;10.384;2023-04-19T15:37:40;12.30;63.70
18934;DHT22;9599;53.706;10.384;2023-04-19T15:40:10;12.30;62.60
18934;DHT22;9599;53.706;10.384;2023-04-19T15:42:39;12.30;65.70
18934;DHT22;9599;53.706;10.384;2023-04-19T15:45:08;12.30;67.80
18934;DHT22;9599;53.706;10.384;2023-04-19T15:47:36;12.30;69.40
18934;DHT22;9599;53.706;10.384;2023-04-19T15:50:06;12.40;70.20
18934;DHT22;9599;53.706;10.384;2023-04-19T15:52:35;12.40;66.10
18934;DHT22;9599;53.706;10.384;2023-04-19T15:55:03;12.40;66.20
18934;DHT22;9599;53.706;10.384;2023-04-19T15:57:31;12.30;64.80
18934;DHT22;9599;53.706;10.384;2023-04-19T15:59:59;12.30;68.00